Time;durP1;ratioP1;P1;durP2;ratioP2;P2;SDS_P1;SDS_P2;PMS_P1;PMS_P2;Temp;Humidity;BMP_temperature;BMP_pressure;BME280_temperature;BME280_humidity;BME280_pressure;Samples;Min_cycle;Max_cycle;Signal;HPM_P1;HPM_P2
2023/11/07 00:01:17;;;;;;;8.68;3.17;;;;;;;4.33;73.87;92521.06;2051728;70;20154;-76
2023/11/07 00:03:45;;;;;;;5.22;3.33;;;;;;;4.32;72.53;92513.28;2051634;70;20595;-79
2023/11/07 00:06:12;;;;;;;7.43;3.65;;;;;;;4.28;72.85;92515.75;2051606;70;20157;-77
2023/11/07 00:08:45;;;;;;;6.22;3.50;;;;;;;4.08;73.31;92510.03;2050912;69;20162;-78
2023/11/07 00:11:21;;;;;;;5.50;3.42;;;;;;;4.11;72.98;92524.09;2051065;70;20158;-78
2023/11/07 00:13:50;;;;;;;6.80;3.35;;;;;;;4.09;73.07;92530.25;2051662;69;20146;-81
2023/11/07 00:16:19;;;;;;;7.10;3.95;;;;;;;3.81;74.41;92512.72;2048568;70;20534;-77
2023/11/07 00:18:45;;;;;;;7.35;4.38;;;;;;;3.71;75.55;92520.25;2052389;70;20147;-78
2023/11/07 00:21:10;;;;;;;6.15;3.72;;;;;;;3.96;73.86;92527.78;2052276;70;20154;-81
2023/11/07 00:23:37;;;;;;;5.78;3.45;;;;;;;4.03;73.05;92535.31;2051774;70;20158;-83
2023/11/07 00:26:03;;;;;;;5.82;3.63;;;;;;;3.83;73.13;92504.50;2051398;69;20232;-82
2023/11/07 00:28:29;;;;;;;5.53;3.50;;;;;;;4.00;73.35;92545.56;2051525;69;20150;-84
2023/11/07 00:30:55;;;;;;;7.82;3.70;;;;;;;4.02;72.81;92551.31;2050816;70;20276;-80
2023/11/07 00:33:22;;;;;;;6.45;3.40;;;;;;;4.04;73.02;92534.03;2051207;70;20233;-81
2023/11/07 00:35:48;;;;;;;5.75;3.45;;;;;;;3.87;73.96;92534.00;2051390;69;20248;-85
2023/11/07 00:38:14;;;;;;;8.40;3.53;;;;;;;3.92;73.75;92550.47;2051437;70;20193;-84
2023/11/07 00:40:50;;;;;;;4.80;3.20;;;;;;;3.99;73.61;92546.16;2051768;69;20685;-85
2023/11/07 00:43:17;;;;;;;7.60;3.55;;;;;;;4.09;73.05;92555.34;2051262;70;20162;-84
2023/11/07 00:45:43;;;;;;;8.02;3.38;;;;;;;3.81;74.91;92554.47;2051982;70;20625;-84
2023/11/07 00:48:13;;;;;;;6.57;3.55;;;;;;;3.96;74.09;92553.59;2048578;70;20162;-86
2023/11/07 00:50:40;;;;;;;5.57;3.45;;;;;;;4.03;73.88;92569.50;2051235;70;20150;-84
2023/11/07 00:53:05;;;;;;;6.55;3.80;;;;;;;4.07;73.63;92566.31;2051050;70;20562;-83
2023/11/07 00:55:31;;;;;;;5.30;3.47;;;;;;;4.05;74.14;92564.09;2050993;70;20145;-76
2023/11/07 00:58:00;;;;;;;6.78;3.80;;;;;;;4.00;73.79;92556.72;2051732;70;20138;-84
2023/11/07 01:00:27;;;;;;;6.03;3.53;;;;;;;4.12;73.66;92561.78;2051639;70;20135;-84
2023/11/07 01:02:53;;;;;;;5.78;3.28;;;;;;;4.10;73.78;92565.16;2051646;69;20131;-78
2023/11/07 01:05:19;;;;;;;10.73;3.33;;;;;;;4.12;74.12;92562.53;2051627;69;20130;-78
2023/11/07 01:07:44;;;;;;;5.95;2.90;;;;;;;4.08;73.32;92570.59;2051707;69;20355;-77
2023/11/07 01:10:11;;;;;;;7.55;3.40;;;;;;;3.98;74.23;92580.88;2051096;69;20221;-78
2023/11/07 01:12:36;;;;;;;5.93;3.28;;;;;;;3.49;76.18;92580.34;2051238;70;20164;-78
2023/11/07 01:15:05;;;;;;;5.53;3.45;;;;;;;3.93;75.30;92582.59;2051031;70;20154;-77
2023/11/07 01:17:31;;;;;;;8.68;3.20;;;;;;;4.04;74.78;92584.91;2048404;69;20151;-77
2023/11/07 01:19:57;;;;;;;6.95;3.42;;;;;;;3.77;75.33;92582.00;2051780;69;20568;-77
2023/11/07 01:22:23;;;;;;;6.50;3.53;;;;;;;4.03;74.64;92577.88;2051652;69;20151;-77
2023/11/07 01:24:48;;;;;;;6.20;3.42;;;;;;;4.10;74.31;92575.56;2051595;69;20180;-77
2023/11/07 01:27:14;;;;;;;6.63;3.55;;;;;;;4.19;74.50;92583.28;2051690;69;20149;-76
2023/11/07 01:29:41;;;;;;;5.65;3.42;;;;;;;4.18;75.11;92579.03;2051649;69;20159;-80
2023/11/07 01:32:07;;;;;;;7.35;3.67;;;;;;;4.24;74.63;92571.91;2051566;69;20208;-77
2023/11/07 01:34:33;;;;;;;7.82;3.20;;;;;;;4.27;74.89;92567.97;2051270;70;20166;-77
2023/11/07 01:36:59;;;;;;;7.03;3.22;;;;;;;4.31;74.96;92570.34;2051075;70;20515;-77
2023/11/07 01:39:27;;;;;;;5.50;3.33;;;;;;;4.27;74.84;92575.59;2051098;70;20166;-81
2023/11/07 01:41:54;;;;;;;5.82;3.42;;;;;;;4.24;74.47;92566.31;2051921;69;20660;-82
2023/11/07 01:44:28;;;;;;;8.57;3.55;;;;;;;4.26;74.49;92562.94;2051012;70;20169;-77
2023/11/07 01:46:58;;;;;;;5.60;3.45;;;;;;;4.21;74.75;92558.38;2051587;70;20146;-75
2023/11/07 01:49:27;;;;;;;4.97;2.92;;;;;;;4.34;74.53;92560.81;2051803;69;20174;-74
2023/11/07 01:52:04;;;;;;;6.30;3.20;;;;;;;4.31;74.03;92556.41;2051235;69;20143;-78
2023/11/07 01:54:35;;;;;;;8.13;3.50;;;;;;;4.23;75.25;92556.50;2051729;69;20286;-85
2023/11/07 01:57:03;;;;;;;5.95;3.30;;;;;;;3.90;75.72;92564.25;2051895;69;20154;-82
2023/11/07 01:59:29;;;;;;;8.07;3.50;;;;;;;3.98;76.41;92566.94;2051545;70;20151;-79
2023/11/07 02:02:05;;;;;;;5.90;3.40;;;;;;;4.10;75.33;92561.66;2048382;70;20174;-78
2023/11/07 02:04:34;;;;;;;5.85;3.33;;;;;;;4.25;74.66;92567.78;2051604;69;20241;-77
2023/11/07 02:07:01;;;;;;;6.88;2.78;;;;;;;4.09;74.43;92535.84;2051592;70;20288;-77
2023/11/07 02:09:33;;;;;;;6.05;3.10;;;;;;;4.25;74.73;92561.47;2051649;70;20153;-76
2023/11/07 02:11:59;;;;;;;5.50;3.13;;;;;;;4.31;74.80;92568.31;2051058;70;20139;-75
2023/11/07 02:14:36;;;;;;;6.22;3.38;;;;;;;4.32;74.18;92558.63;2052087;69;20220;-78
2023/11/07 02:17:05;;;;;;;7.07;3.42;;;;;;;4.13;75.34;92563.28;2051381;70;20178;-78
2023/11/07 02:19:35;;;;;;;7.28;3.17;;;;;;;4.25;75.17;92558.69;2051748;69;20135;-78
2023/11/07 02:22:08;;;;;;;9.55;3.28;;;;;;;4.37;75.10;92556.91;2051302;70;20240;-78
2023/11/07 02:24:35;;;;;;;5.47;3.20;;;;;;;4.43;75.03;92559.44;2048075;70;20200;-77
2023/11/07 02:27:08;;;;;;;6.88;2.90;;;;;;;4.41;74.73;92554.44;2051508;70;20216;-76
2023/11/07 02:29:35;;;;;;;4.32;2.90;;;;;;;4.40;74.84;92555.00;2051728;70;20633;-86
2023/11/07 02:32:02;;;;;;;5.22;3.25;;;;;;;4.41;74.79;92546.06;2048098;70;20170;-76
2023/11/07 02:34:35;;;;;;;7.85;3.00;;;;;;;4.39;74.86;92550.75;2051435;70;20166;-79
2023/11/07 02:37:01;;;;;;;6.28;3.90;;;;;;;4.15;75.28;92543.94;2050998;70;20241;-78
2023/11/07 02:39:27;;;;;;;5.35;3.10;;;;;;;4.11;74.75;92518.53;2047967;70;20170;-77
2023/11/07 02:41:52;;;;;;;6.30;2.95;;;;;;;4.16;74.72;92542.63;2050940;70;20147;-77
2023/11/07 02:44:18;;;;;;;6.68;3.20;;;;;;;3.88;76.37;92541.78;2050919;69;20174;-81
2023/11/07 02:46:45;;;;;;;5.32;3.10;;;;;;;4.18;75.35;92553.94;2050919;70;20155;-78
2023/11/07 02:49:18;;;;;;;5.22;2.85;;;;;;;4.25;74.69;92561.47;2051532;69;20149;-80
2023/11/07 02:51:46;;;;;;;6.70;3.25;;;;;;;4.35;75.42;92553.94;2051424;70;20197;-78
2023/11/07 02:54:11;;;;;;;5.07;3.10;;;;;;;4.28;75.87;92551.97;2050729;70;20515;-79
2023/11/07 02:56:37;;;;;;;5.05;2.80;;;;;;;4.30;75.24;92549.34;2050688;70;20158;-77
2023/11/07 02:59:03;;;;;;;4.88;3.25;;;;;;;4.40;74.90;92552.22;2051528;70;20224;-77
2023/11/07 03:01:31;;;;;;;4.95;3.13;;;;;;;4.24;75.97;92549.59;2051334;69;20158;-77
2023/11/07 03:03:57;;;;;;;7.28;3.60;;;;;;;4.45;74.42;92549.19;2050880;70;20133;-79
2023/11/07 03:06:25;;;;;;;5.40;3.00;;;;;;;4.50;75.07;92548.22;2051335;69;20162;-82
2023/11/07 03:08:51;;;;;;;6.63;3.22;;;;;;;4.42;75.54;92555.91;2050891;70;20621;-80
2023/11/07 03:11:17;;;;;;;7.70;3.25;;;;;;;4.50;74.95;92556.56;2051018;70;20141;-79
2023/11/07 03:13:45;;;;;;;5.85;3.22;;;;;;;4.51;75.15;92548.94;2051618;70;20554;-78
2023/11/07 03:16:11;;;;;;;6.15;3.17;;;;;;;4.41;76.46;92534.19;2051546;70;20206;-77
2023/11/07 03:18:38;;;;;;;6.13;3.03;;;;;;;4.45;75.53;92542.88;2051527;70;20229;-77
2023/11/07 03:21:07;;;;;;;6.00;3.38;;;;;;;4.22;76.21;92543.88;2045491;70;20150;-77
2023/11/07 03:23:35;;;;;;;6.03;3.20;;;;;;;4.40;75.45;92555.00;2051574;70;20146;-77
2023/11/07 03:26:04;;;;;;;6.65;3.38;;;;;;;4.56;74.99;92551.47;2051320;70;20595;-77
2023/11/07 03:28:29;;;;;;;5.80;3.20;;;;;;;4.54;75.28;92553.38;2051303;69;20242;-76
2023/11/07 03:30:55;;;;;;;5.97;2.97;;;;;;;4.51;74.87;92546.88;2051072;70;20166;-80
2023/11/07 03:33:21;;;;;;;5.95;3.40;;;;;;;4.40;74.91;92555.00;2051090;70;20229;-83
2023/11/07 03:35:47;;;;;;;7.95;3.30;;;;;;;4.40;75.65;92557.78;2050953;70;20181;-79
2023/11/07 03:38:13;;;;;;;5.78;3.22;;;;;;;4.55;74.44;92549.25;2051235;70;20219;-81
2023/11/07 03:40:40;;;;;;;4.97;3.30;;;;;;;4.56;75.62;92559.09;2051078;70;20182;-82
2023/11/07 03:43:07;;;;;;;5.07;3.08;;;;;;;4.62;75.24;92558.84;2051346;69;20197;-82
2023/11/07 03:45:33;;;;;;;4.32;2.97;;;;;;;4.62;75.18;92564.41;2051374;69;20601;-77
2023/11/07 03:47:59;;;;;;;5.65;3.40;;;;;;;4.57;74.59;92566.88;2051444;69;20690;-75
2023/11/07 03:50:25;;;;;;;4.93;3.03;;;;;;;4.38;75.30;92561.16;2051653;70;20583;-76
2023/11/07 03:52:51;;;;;;;6.05;3.30;;;;;;;4.28;75.53;92565.91;2051326;70;20139;-75
2023/11/07 03:55:18;;;;;;;4.97;3.30;;;;;;;4.44;75.43;92564.41;2051798;69;20190;-76
2023/11/07 03:57:45;;;;;;;8.80;4.00;;;;;;;4.56;74.62;92570.97;2051637;70;20157;-76
2023/11/07 04:00:19;;;;;;;5.65;3.80;;;;;;;4.57;74.54;92575.25;2052527;70;20169;-80
2023/11/07 04:02:45;;;;;;;6.72;3.42;;;;;;;4.49;74.93;92579.44;2048523;70;20146;-77
2023/11/07 04:05:12;;;;;;;8.90;3.70;;;;;;;4.56;74.83;92578.63;2048532;70;20174;-77
2023/11/07 04:07:38;;;;;;;6.68;3.60;;;;;;;4.55;75.42;92583.47;2045424;70;20150;-77
2023/11/07 04:10:05;;;;;;;7.57;3.88;;;;;;;4.43;75.62;92581.72;2048927;70;20150;-85
2023/11/07 04:12:35;;;;;;;5.65;3.60;;;;;;;4.49;75.43;92582.97;2048637;70;20178;-76
2023/11/07 04:15:02;;;;;;;6.85;3.75;;;;;;;4.45;75.47;92591.00;2048283;70;20245;-79
2023/11/07 04:17:27;;;;;;;8.55;4.00;;;;;;;4.41;75.63;92581.59;2048357;70;20146;-80
2023/11/07 04:19:53;;;;;;;5.68;3.72;;;;;;;4.47;75.76;92576.47;2048570;70;20586;-79
2023/11/07 04:22:19;;;;;;;8.43;4.07;;;;;;;4.50;76.01;92567.72;2048637;70;20162;-81
2023/11/07 04:24:47;;;;;;;10.65;4.43;;;;;;;4.57;75.59;92561.31;2048236;70;20520;-79
2023/11/07 04:27:14;;;;;;;9.15;4.05;;;;;;;4.58;75.39;92556.47;2047858;70;20658;-78
2023/11/07 04:29:40;;;;;;;7.55;3.95;;;;;;;4.60;75.61;92553.84;2048450;70;20141;-80
2023/11/07 04:32:06;;;;;;;8.63;4.03;;;;;;;4.60;76.21;92548.28;2047981;70;20249;-79
2023/11/07 04:34:31;;;;;;;6.25;3.33;;;;;;;4.58;75.53;92543.28;2048339;70;20240;-78
2023/11/07 04:36:58;;;;;;;7.88;3.63;;;;;;;4.61;75.60;92551.78;2047762;70;20143;-78
2023/11/07 04:39:25;;;;;;;6.38;3.53;;;;;;;4.56;75.62;92547.94;2047732;70;20154;-77
2023/11/07 04:41:52;;;;;;;7.40;3.50;;;;;;;4.63;75.68;92549.91;2048270;70;20161;-78
2023/11/07 04:44:20;;;;;;;7.70;3.60;;;;;;;4.55;76.05;92549.25;2048352;70;20233;-79
2023/11/07 04:46:47;;;;;;;5.93;3.10;;;;;;;4.66;75.24;92571.06;2047642;70;20283;-82
2023/11/07 04:49:14;;;;;;;6.65;3.47;;;;;;;4.57;75.56;92575.25;2047643;70;20139;-78
2023/11/07 04:51:43;;;;;;;6.38;3.65;;;;;;;4.51;75.72;92562.88;2048239;70;20146;-77
2023/11/07 04:54:08;;;;;;;10.13;3.90;;;;;;;4.63;75.90;92571.47;2048215;70;20495;-83
2023/11/07 04:56:34;;;;;;;6.32;3.45;;;;;;;4.61;75.46;92569.25;2048173;70;20131;-83
2023/11/07 04:59:00;;;;;;;5.68;3.28;;;;;;;4.71;75.42;92578.44;2044849;70;20158;-77
2023/11/07 05:01:26;;;;;;;7.20;3.60;;;;;;;4.63;74.15;92577.03;2047709;70;20626;-78
2023/11/07 05:03:53;;;;;;;11.35;4.95;;;;;;;3.83;78.02;92582.50;2047644;70;20146;-79
2023/11/07 05:06:19;;;;;;;9.68;4.63;;;;;;;3.91;78.73;92581.69;2048105;70;20142;-77
2023/11/07 05:08:46;;;;;;;9.23;4.50;;;;;;;4.21;77.46;92578.59;2047594;70;20146;-77
2023/11/07 05:11:17;;;;;;;11.85;5.10;;;;;;;4.37;77.12;92575.69;2048046;70;20622;-78
2023/11/07 05:13:44;;;;;;;9.55;5.18;;;;;;;4.32;76.90;92574.59;2048225;70;20147;-77
2023/11/07 05:16:10;;;;;;;13.00;6.60;;;;;;;4.34;77.08;92575.50;2047605;70;20151;-77
2023/11/07 05:18:36;;;;;;;9.57;5.25;;;;;;;4.47;76.85;92585.59;2048135;70;20162;-80
2023/11/07 05:21:03;;;;;;;7.00;3.60;;;;;;;4.51;76.39;92582.38;2048518;70;20591;-78
2023/11/07 05:23:28;;;;;;;6.03;3.75;;;;;;;4.27;76.74;92567.22;2048798;70;20178;-78
2023/11/07 05:25:54;;;;;;;10.27;6.72;;;;;;;4.06;78.19;92592.69;2048559;70;20159;-79
2023/11/07 05:28:20;;;;;;;12.52;7.10;;;;;;;4.06;78.43;92593.41;2048559;70;20155;-84
2023/11/07 05:30:47;;;;;;;12.45;7.30;;;;;;;4.36;77.27;92597.22;2048455;70;20182;-82
2023/11/07 05:33:13;;;;;;;10.70;7.30;;;;;;;4.40;77.21;92594.78;2048690;70;20169;-77
2023/11/07 05:35:39;;;;;;;12.52;6.93;;;;;;;4.46;77.03;92581.31;2047938;70;20587;-77
2023/11/07 05:38:04;;;;;;;7.70;5.50;;;;;;;4.53;76.66;92582.53;2048481;70;20162;-77
2023/11/07 05:40:32;;;;;;;9.15;5.60;;;;;;;4.52;76.90;92581.81;2048576;70;20146;-77
2023/11/07 05:42:58;;;;;;;10.85;5.13;;;;;;;4.44;76.76;92566.47;2048051;70;20147;-77
2023/11/07 05:45:25;;;;;;;10.13;5.95;;;;;;;3.62;80.34;92570.22;2045372;70;20157;-77
2023/11/07 05:47:51;;;;;;;8.25;5.45;;;;;;;3.97;80.18;92571.03;2048697;70;20179;-77
2023/11/07 05:50:17;;;;;;;10.13;5.50;;;;;;;4.22;79.12;92565.44;2048733;70;20170;-77
2023/11/07 05:52:44;;;;;;;10.40;5.72;;;;;;;4.33;78.40;92570.50;2048691;70;20146;-80
2023/11/07 05:55:14;;;;;;;8.50;5.53;;;;;;;4.39;77.48;92559.84;2048542;70;20151;-81
2023/11/07 05:57:39;;;;;;;8.65;5.10;;;;;;;4.49;77.29;92569.03;2048060;70;20535;-83
2023/11/07 06:00:07;;;;;;;9.13;5.90;;;;;;;4.31;77.41;92573.88;2048636;70;20147;-82
2023/11/07 06:02:40;;;;;;;10.77;5.72;;;;;;;4.43;77.63;92576.88;2048119;70;20202;-83
2023/11/07 06:05:07;;;;;;;9.30;6.10;;;;;;;4.56;77.49;92576.56;2048456;70;20665;-84
2023/11/07 06:07:33;;;;;;;9.27;5.93;;;;;;;4.41;77.89;92587.16;2047998;70;20154;-82
2023/11/07 06:10:00;;;;;;;13.90;6.30;;;;;;;4.57;77.25;92586.41;2048404;70;20166;-78
2023/11/07 06:12:27;;;;;;;14.55;7.40;;;;;;;4.62;76.11;92590.25;2048560;70;20178;-79
2023/11/07 06:14:53;;;;;;;19.05;8.63;;;;;;;4.48;76.83;92591.91;2048474;70;20162;-78
2023/11/07 06:17:19;;;;;;;16.88;7.38;;;;;;;4.49;76.91;92594.13;2049004;70;20523;-79
2023/11/07 06:19:47;;;;;;;14.50;7.18;;;;;;;4.63;76.92;92596.56;2048595;70;20146;-80
2023/11/07 06:22:13;;;;;;;15.27;7.65;;;;;;;4.66;76.58;92598.94;2048440;70;20568;-78
2023/11/07 06:24:38;;;;;;;15.95;9.10;;;;;;;4.41;77.10;92604.63;2048492;70;20158;-78
2023/11/07 06:27:04;;;;;;;16.33;8.05;;;;;;;4.55;77.08;92593.88;2048950;70;20155;-79
2023/11/07 06:29:30;;;;;;;12.27;7.68;;;;;;;4.53;76.95;92599.28;2049563;70;20271;-80
2023/11/07 06:31:55;;;;;;;16.90;7.72;;;;;;;4.57;76.86;92599.59;2048664;70;20257;-80
2023/11/07 06:34:21;;;;;;;15.15;7.82;;;;;;;4.72;76.91;92596.66;2048556;70;20150;-83
2023/11/07 06:36:47;;;;;;;18.00;8.30;;;;;;;4.69;77.29;92600.59;2048718;70;20208;-84
2023/11/07 06:39:15;;;;;;;16.13;7.78;;;;;;;4.70;76.96;92596.47;2048422;70;20212;-82
2023/11/07 06:41:41;;;;;;;16.20;8.68;;;;;;;4.81;76.50;92598.03;2048861;70;20158;-85
2023/11/07 06:44:10;;;;;;;13.18;8.55;;;;;;;4.65;77.27;92597.47;2048592;70;20583;-80
2023/11/07 06:46:49;;;;;;;17.88;9.68;;;;;;;4.65;77.42;92586.31;2048489;70;20646;-81
2023/11/07 06:49:15;;;;;;;19.13;10.98;;;;;;;4.74;77.44;92596.81;2048592;70;20149;-79
2023/11/07 06:51:41;;;;;;;17.20;9.55;;;;;;;4.73;77.62;92600.91;2048433;70;20233;-79
2023/11/07 06:54:08;;;;;;;15.70;9.20;;;;;;;4.89;76.97;92595.16;2048380;70;20188;-78
2023/11/07 06:56:34;;;;;;;18.60;10.93;;;;;;;5.03;76.92;92594.22;2048090;70;20589;-78
2023/11/07 06:59:00;;;;;;;18.17;11.68;;;;;;;5.09;76.93;92589.13;2048468;70;20155;-78
2023/11/07 07:01:28;;;;;;;25.77;13.10;;;;;;;5.15;76.88;92597.22;2048356;70;20205;-81
2023/11/07 07:03:54;;;;;;;21.55;12.93;;;;;;;5.26;76.35;92596.69;2045177;70;20341;-78
2023/11/07 07:06:23;;;;;;;19.40;11.95;;;;;;;5.15;76.76;92593.72;2047890;70;20154;-78
2023/11/07 07:08:50;;;;;;;19.67;12.10;;;;;;;5.20;76.25;92581.53;2048444;70;20176;-84
2023/11/07 07:11:16;;;;;;;18.92;11.82;;;;;;;5.37;76.50;92594.72;2048337;70;20153;-83
2023/11/07 07:13:44;;;;;;;21.50;13.73;;;;;;;5.35;76.52;92593.22;2048656;70;20151;-82
2023/11/07 07:16:13;;;;;;;18.33;12.38;;;;;;;5.50;75.98;92597.13;2048402;70;20146;-80
2023/11/07 07:18:44;;;;;;;22.48;13.10;;;;;;;5.59;75.85;92588.81;2048439;70;20153;-81
2023/11/07 07:21:12;;;;;;;23.13;15.40;;;;;;;5.47;75.73;92584.31;2045347;70;20141;-81
2023/11/07 07:23:42;;;;;;;22.63;14.23;;;;;;;5.56;76.06;92592.00;2048614;70;20154;-80
2023/11/07 07:26:09;;;;;;;21.33;11.25;;;;;;;5.33;77.17;92597.94;2050469;70;20155;-80
2023/11/07 07:28:38;;;;;;;22.23;11.82;;;;;;;5.70;76.13;92595.88;2048449;70;20152;-79
2023/11/07 07:31:07;;;;;;;19.90;11.88;;;;;;;5.78;75.64;92598.56;2048261;70;20135;-79
2023/11/07 07:33:37;;;;;;;24.20;10.82;;;;;;;5.94;75.16;92608.19;2047834;70;20317;-79
2023/11/07 07:36:04;;;;;;;17.95;10.68;;;;;;;6.09;74.87;92607.97;2048585;70;20174;-80
2023/11/07 07:38:35;;;;;;;21.63;10.82;;;;;;;6.20;74.80;92606.66;2048247;70;20134;-81
2023/11/07 07:41:05;;;;;;;19.95;10.43;;;;;;;6.25;74.63;92596.53;2048431;70;20135;-80
2023/11/07 07:43:31;;;;;;;17.77;9.73;;;;;;;6.39;73.86;92610.81;2047813;70;20158;-79
2023/11/07 07:45:57;;;;;;;23.90;11.10;;;;;;;5.81;75.84;92606.50;2047941;70;20150;-78
2023/11/07 07:48:22;;;;;;;28.30;16.17;;;;;;;5.90;77.17;92621.84;2048429;70;20141;-79
2023/11/07 07:50:51;;;;;;;21.60;13.63;;;;;;;6.17;76.05;92615.47;2048301;70;20139;-80
2023/11/07 07:53:20;;;;;;;30.17;15.27;;;;;;;6.14;75.87;92617.41;2048289;70;20131;-80
2023/11/07 07:55:50;;;;;;;22.73;12.43;;;;;;;6.33;74.67;92625.09;2048101;70;20205;-80
2023/11/07 07:58:19;;;;;;;30.35;15.38;;;;;;;6.53;74.64;92623.06;2048300;70;20154;-79
2023/11/07 08:00:49;;;;;;;25.83;14.50;;;;;;;6.72;73.56;92631.47;2048174;70;20138;-79
2023/11/07 08:03:20;;;;;;;18.33;10.55;;;;;;;6.81;73.03;92627.19;2049754;70;20198;-81
2023/11/07 08:05:51;;;;;;;20.77;10.23;;;;;;;6.83;72.99;92616.91;2048188;70;20194;-80
2023/11/07 08:08:17;;;;;;;15.82;8.98;;;;;;;6.84;72.96;92614.84;2048298;70;20143;-79
2023/11/07 08:10:47;;;;;;;14.38;9.73;;;;;;;6.70;73.34;92606.16;2048258;70;20158;-79
2023/11/07 08:13:15;;;;;;;16.25;10.50;;;;;;;6.93;73.25;92618.97;2048456;70;20659;-79
2023/11/07 08:15:40;;;;;;;13.27;7.75;;;;;;;7.00;72.94;92612.47;2048242;70;20141;-78
2023/11/07 08:18:06;;;;;;;11.57;7.35;;;;;;;7.19;71.92;92615.25;2048281;70;20479;-79
2023/11/07 08:20:33;;;;;;;12.13;8.00;;;;;;;7.27;71.90;92618.63;2048200;70;20564;-80
2023/11/07 08:23:00;;;;;;;17.88;9.25;;;;;;;7.12;71.95;92624.56;2048177;70;20147;-77
2023/11/07 08:25:28;;;;;;;19.75;9.82;;;;;;;6.92;73.06;92621.03;2048081;70;20226;-79
2023/11/07 08:27:54;;;;;;;13.25;8.13;;;;;;;6.54;73.67;92630.84;2048396;70;20152;-78
2023/11/07 08:30:22;;;;;;;13.52;8.02;;;;;;;6.27;75.26;92622.56;2048344;70;20146;-77
2023/11/07 08:32:49;;;;;;;13.50;7.15;;;;;;;6.79;73.35;92624.28;2048287;70;20147;-79
2023/11/07 08:35:18;;;;;;;12.98;6.95;;;;;;;7.20;72.09;92613.22;2047788;70;20222;-81
2023/11/07 08:37:47;;;;;;;17.98;8.57;;;;;;;7.39;71.58;92611.09;2047780;70;20317;-78
2023/11/07 08:40:16;;;;;;;15.15;8.40;;;;;;;7.56;70.96;92618.59;2048021;70;20599;-80
2023/11/07 08:42:43;;;;;;;12.57;7.20;;;;;;;7.42;69.82;92611.22;2047518;70;20174;-79
2023/11/07 08:45:15;;;;;;;12.63;7.38;;;;;;;7.58;70.61;92615.19;2048095;70;20266;-79
2023/11/07 08:47:50;;;;;;;10.60;5.97;;;;;;;6.91;71.87;92616.00;2045008;70;20266;-78
2023/11/07 08:50:18;;;;;;;10.25;5.60;;;;;;;7.44;70.61;92617.00;2048073;70;20169;-77
2023/11/07 08:52:44;;;;;;;9.30;5.68;;;;;;;7.66;71.26;92623.44;2048189;70;20156;-80
2023/11/07 08:55:13;;;;;;;8.80;5.50;;;;;;;7.76;71.31;92633.28;2048210;70;20601;-77
2023/11/07 08:57:39;;;;;;;10.75;5.90;;;;;;;7.90;69.82;92636.31;2048684;70;20166;-77
2023/11/07 09:00:12;;;;;;;7.22;4.63;;;;;;;7.84;69.10;92645.06;2048827;70;20166;-77
2023/11/07 09:02:38;;;;;;;10.65;5.85;;;;;;;7.42;70.82;92634.38;2048945;70;20587;-77
2023/11/07 09:05:08;;;;;;;12.90;6.82;;;;;;;7.31;71.74;92635.00;2048771;70;20573;-77
2023/11/07 09:07:37;;;;;;;10.68;6.47;;;;;;;7.36;71.55;92637.47;2048324;70;20514;-78
2023/11/07 09:10:04;;;;;;;10.35;6.47;;;;;;;7.74;70.33;92633.13;2048557;70;20166;-78
2023/11/07 09:12:30;;;;;;;11.18;6.25;;;;;;;7.90;69.30;92634.25;2048724;70;20173;-78
2023/11/07 09:14:56;;;;;;;9.80;5.55;;;;;;;8.03;69.34;92626.69;2048202;70;20553;-79
2023/11/07 09:17:22;;;;;;;10.88;5.90;;;;;;;8.03;69.03;92640.72;2048672;70;20138;-82
2023/11/07 09:19:48;;;;;;;7.57;4.63;;;;;;;7.94;68.72;92641.47;2048576;70;20147;-81
2023/11/07 09:22:14;;;;;;;9.50;4.70;;;;;;;7.98;68.83;92650.19;2048590;70;20160;-79
2023/11/07 09:24:41;;;;;;;7.47;4.70;;;;;;;7.94;69.43;92647.09;2048454;70;20211;-80
2023/11/07 09:27:07;;;;;;;7.95;4.40;;;;;;;7.90;68.83;92647.53;2048614;70;20576;-79
2023/11/07 09:29:34;;;;;;;8.43;4.75;;;;;;;7.78;69.59;92657.88;2048093;70;20157;-80
2023/11/07 09:32:03;;;;;;;8.90;4.47;;;;;;;7.85;69.18;92645.78;2048095;70;20158;-79
2023/11/07 09:34:29;;;;;;;9.38;4.63;;;;;;;8.12;69.06;92642.75;2048643;70;20233;-80
2023/11/07 09:36:55;;;;;;;11.57;4.80;;;;;;;8.05;68.42;92647.19;2048598;70;20206;-77
2023/11/07 09:39:21;;;;;;;7.78;4.30;;;;;;;8.27;68.27;92644.44;2048384;70;20131;-77
2023/11/07 09:41:47;;;;;;;6.15;3.63;;;;;;;7.81;68.43;92642.69;2048595;70;20588;-78
2023/11/07 09:44:14;;;;;;;7.82;4.13;;;;;;;8.03;67.64;92635.09;2047958;70;20177;-79
2023/11/07 09:46:41;;;;;;;13.35;5.97;;;;;;;8.37;67.48;92639.53;2048642;70;20155;-77
2023/11/07 09:49:12;;;;;;;6.43;3.80;;;;;;;8.46;67.38;92626.78;2048671;70;20165;-79
2023/11/07 09:51:42;;;;;;;5.15;3.45;;;;;;;8.57;66.78;92634.56;2048739;70;20143;-80
2023/11/07 09:54:08;;;;;;;5.65;3.50;;;;;;;8.53;65.97;92634.31;2047921;70;20174;-81
2023/11/07 09:56:42;;;;;;;5.53;3.40;;;;;;;8.60;65.53;92622.13;2048570;70;20327;-82
2023/11/07 09:59:29;;;;;;;5.43;3.85;;;;;;;8.91;65.79;92622.06;2048597;70;20155;-83
2023/11/07 10:01:55;;;;;;;9.90;4.88;;;;;;;8.97;66.14;92627.34;2050824;70;20230;-86
2023/11/07 10:04:22;;;;;;;9.07;4.65;;;;;;;8.72;67.42;92625.03;2048090;70;20155;-80
2023/11/07 10:06:48;;;;;;;8.63;5.22;;;;;;;8.37;68.33;92626.25;2048371;70;20127;-79
2023/11/07 10:09:16;;;;;;;7.72;4.57;;;;;;;8.90;67.83;92631.84;2048402;70;20153;-83
2023/11/07 10:11:49;;;;;;;8.55;4.30;;;;;;;8.97;67.57;92618.91;2048589;70;20165;-80
2023/11/07 10:14:22;;;;;;;5.90;3.83;;;;;;;9.00;66.83;92634.56;2048517;70;20142;-80
2023/11/07 10:16:52;;;;;;;;;;;;;;;8.90;66.25;92629.75;2048683;70;20155;-80
2023/11/07 10:19:22;;;;;;;5.70;3.50;;;;;;;8.79;67.02;92610.03;2048561;70;20050;-80
2023/11/07 10:21:49;;;;;;;7.93;4.20;;;;;;;9.05;67.17;92644.72;2048687;70;20162;-78
2023/11/07 10:24:16;;;;;;;6.80;4.22;;;;;;;8.58;68.02;92648.00;2048465;70;20705;-81
2023/11/07 10:26:58;;;;;;;7.32;4.05;;;;;;;8.86;67.17;92649.16;2048461;70;20135;-81
2023/11/07 10:29:30;;;;;;;7.25;4.10;;;;;;;9.03;66.71;92644.59;2048509;70;20514;-79
2023/11/07 10:32:08;;;;;;;5.47;3.42;;;;;;;8.98;65.51;92640.81;2048416;70;20226;-82
2023/11/07 10:34:36;;;;;;;6.90;3.78;;;;;;;9.06;65.10;92640.56;2048407;70;20143;-82
2023/11/07 10:37:04;;;;;;;6.00;4.00;;;;;;;8.88;65.50;92631.69;2048394;70;20557;-79
2023/11/07 10:39:33;;;;;;;7.63;4.00;;;;;;;9.12;65.54;92641.00;2048215;70;20163;-79
2023/11/07 10:42:18;;;;;;;5.15;3.35;;;;;;;8.78;66.18;92636.63;2048318;70;20158;-79
2023/11/07 10:44:45;;;;;;;7.15;4.88;;;;;;;8.82;65.42;92626.41;2048432;70;20165;-81
2023/11/07 10:47:11;;;;;;;12.98;7.63;;;;;;;8.72;66.31;92611.72;2048752;70;20159;-80
2023/11/07 10:49:36;;;;;;;13.93;6.55;;;;;;;8.25;67.67;92619.06;2048417;70;20178;-80
2023/11/07 10:52:07;;;;;;;8.15;5.03;;;;;;;8.35;67.57;92612.06;2048330;70;20561;-80
2023/11/07 10:54:33;;;;;;;10.82;5.00;;;;;;;8.44;68.06;92621.78;2048444;70;20147;-85
2023/11/07 10:57:05;;;;;;;9.25;4.38;;;;;;;8.19;68.71;92615.84;2048472;70;20256;-85
2023/11/07 10:59:32;;;;;;;8.77;4.65;;;;;;;8.69;67.94;92615.72;2048494;70;20143;-80
2023/11/07 11:02:04;;;;;;;9.43;4.47;;;;;;;9.03;66.59;92610.91;2048442;70;20169;-81
2023/11/07 11:04:38;;;;;;;9.55;4.97;;;;;;;8.63;67.13;92606.91;2048085;70;20245;-81
2023/11/07 11:07:07;;;;;;;8.52;4.25;;;;;;;8.71;66.57;92603.91;2048507;70;20174;-82
2023/11/07 11:09:35;;;;;;;7.65;4.82;;;;;;;9.26;67.36;92605.38;2048472;70;20527;-78
2023/11/07 11:12:06;;;;;;;8.57;4.88;;;;;;;11.36;65.15;92605.94;2048469;70;20162;-78
2023/11/07 11:14:33;;;;;;;8.27;4.28;;;;;;;12.66;58.12;92593.22;2048366;70;20145;-78
2023/11/07 11:17:33;;;;;;;9.73;4.70;;;;;;;14.31;55.84;92602.56;2047741;70;20514;-79
2023/11/07 11:20:22;;;;;;;8.52;4.78;;;;;;;14.28;53.00;92598.16;2048508;70;20298;-79
2023/11/07 11:22:57;;;;;;;8.68;4.03;;;;;;;13.91;53.39;92588.00;2047935;70;20147;-79
2023/11/07 11:25:53;;;;;;;10.00;4.60;;;;;;;13.79;52.84;92591.00;2048198;70;20159;-79
2023/11/07 11:28:36;;;;;;;10.50;4.47;;;;;;;12.44;55.92;92589.25;2048449;70;20225;-78
2023/11/07 11:31:03;;;;;;;11.95;5.30;;;;;;;11.49;58.42;92582.72;2047634;70;20134;-83
2023/11/07 11:33:29;;;;;;;9.70;5.38;;;;;;;12.13;57.90;92590.44;2050618;70;20161;-80
2023/11/07 11:35:57;;;;;;;11.40;5.07;;;;;;;12.39;57.64;92596.03;2051623;70;20150;-78
2023/11/07 11:38:38;;;;;;;11.02;4.72;;;;;;;11.42;59.07;92575.31;2048298;70;20146;-78
2023/11/07 11:41:06;;;;;;;7.35;4.13;;;;;;;10.66;59.07;92592.81;2050877;70;20666;-80
2023/11/07 11:43:36;;;;;;;6.70;3.47;;;;;;;11.06;58.89;92594.44;2051383;69;20579;-81